createdAt,value
2023-03-10T00:00:13.996Z,75.08
2023-03-10T00:03:16.154Z,75.39
2023-03-10T00:06:20.293Z,76.27
2023-03-10T00:09:23.033Z,75.12
2023-03-10T00:12:27.949Z,75.31
2023-03-10T00:15:30.070Z,76.51
2023-03-10T00:18:32.266Z,75.22
2023-03-10T00:21:35.304Z,74.83
2023-03-10T00:24:37.367Z,74.89
2023-03-10T00:27:39.573Z,75.24
2023-03-10T00:30:41.716Z,75.30
2023-03-10T00:33:44.148Z,75.08
2023-03-10T00:36:46.485Z,74.56
2023-03-10T00:39:59.134Z,75.48
2023-03-10T00:43:04.829Z,75.53
2023-03-10T00:46:07.734Z,75.01
2023-03-10T00:49:15.504Z,74.83
2023-03-10T00:52:17.557Z,76.23
2023-03-10T00:55:19.704Z,76.58
2023-03-10T00:58:22.333Z,76.29
2023-03-10T01:01:39.797Z,76.41
2023-03-10T01:04:42.385Z,77.93
2023-03-10T01:07:44.853Z,76.65
2023-03-10T01:10:47.207Z,76.42
2023-03-10T01:13:50.587Z,76.69
2023-03-10T01:16:52.732Z,77.65
2023-03-10T01:19:56.191Z,77.87
2023-03-10T01:22:58.994Z,77.68
2023-03-10T01:26:01.100Z,78.41
2023-03-10T01:29:04.225Z,79.11
2023-03-10T01:32:07.106Z,78.83
2023-03-10T01:35:09.797Z,78.80
2023-03-10T01:38:12.696Z,78.46
2023-03-10T01:41:16.175Z,78.94
2023-03-10T01:44:20.800Z,78.59
2023-03-10T01:47:22.901Z,79.54
2023-03-10T01:50:26.731Z,79.25
2023-03-10T01:53:29.748Z,78.83
2023-03-10T01:56:31.837Z,77.74
2023-03-10T01:59:34.930Z,77.62
2023-03-10T02:02:40.773Z,77.11
2023-03-10T02:05:53.658Z,78.38
2023-03-10T02:09:00.205Z,79.03
2023-03-10T02:12:04.152Z,78.42
2023-03-10T02:36:15.214Z,77.29
2023-03-10T02:39:17.996Z,77.36
2023-03-10T02:42:20.978Z,76.84
2023-03-10T02:45:25.213Z,76.84
2023-03-10T02:48:33.401Z,76.82
2023-03-10T02:51:43.428Z,76.79
2023-03-10T02:54:48.884Z,76.94
2023-03-10T02:57:51.132Z,76.91
2023-03-10T03:00:53.535Z,77.23
2023-03-10T03:03:56.915Z,76.83
2023-03-10T03:06:59.589Z,76.73
2023-03-10T03:10:02.389Z,76.59
2023-03-10T03:13:06.119Z,76.28
2023-03-10T03:16:09.897Z,76.37
2023-03-10T03:19:13.499Z,76.14
2023-03-10T03:22:16.162Z,76.65
2023-03-10T03:25:21.489Z,76.51
2023-03-10T03:28:24.387Z,76.81
2023-03-10T03:31:27.962Z,76.40
2023-03-10T03:34:39.743Z,76.44
2023-03-10T03:37:44.248Z,76.46
2023-03-10T03:40:48.956Z,76.68
2023-03-10T03:43:54.097Z,78.64
2023-03-10T03:46:56.294Z,78.90
2023-03-10T03:49:59.526Z,78.79
2023-03-10T03:53:02.364Z,78.06
2023-03-10T03:56:06.158Z,77.58
2023-03-10T03:59:11.459Z,77.74
2023-03-10T04:02:14.174Z,78.92
2023-03-10T04:05:16.791Z,79.54
2023-03-10T04:08:19.710Z,81.24
2023-03-10T04:11:22.506Z,81.94
2023-03-10T04:14:25.932Z,82.20
2023-03-10T04:17:29.932Z,82.41
2023-03-10T04:20:32.450Z,82.41
2023-03-10T04:23:35.060Z,82.49
2023-03-10T04:26:37.591Z,82.56
2023-03-10T04:29:40.360Z,82.76
2023-03-10T04:32:42.656Z,82.66
2023-03-10T04:35:51.478Z,82.50
2023-03-10T04:38:56.153Z,82.25
2023-03-10T04:42:04.260Z,83.29
2023-03-10T04:45:07.144Z,83.32
2023-03-10T04:48:10.147Z,83.69
2023-03-10T04:51:13.220Z,82.43
2023-03-10T04:54:23.535Z,83.41
2023-03-10T04:57:25.749Z,83.53
2023-03-10T05:00:29.207Z,83.78
2023-03-10T05:03:31.470Z,85.04
2023-03-10T05:06:33.754Z,85.26
2023-03-10T05:10:05.454Z,85.50
2023-03-10T05:13:12.339Z,84.89
2023-03-10T05:16:20.930Z,85.40
2023-03-10T05:19:24.821Z,86.05
2023-03-10T05:22:28.521Z,85.57
2023-03-10T05:25:31.319Z,85.65
2023-03-10T05:28:34.271Z,86.04
2023-03-10T05:31:37.123Z,86.60
2023-03-10T05:34:44.830Z,87.96
2023-03-10T05:37:47.309Z,87.59
2023-03-10T05:40:49.525Z,87.47
2023-03-10T05:43:51.626Z,87.45
2023-03-10T05:46:54.927Z,88.33
2023-03-10T05:49:57.516Z,88.49
2023-03-10T05:53:00.301Z,87.91
2023-03-10T05:56:15.257Z,87.06
2023-03-10T05:59:18.889Z,87.23
2023-03-10T06:02:21.513Z,88.59
2023-03-10T06:05:23.507Z,88.23
2023-03-10T06:08:28.133Z,88.49
2023-03-10T06:11:30.276Z,87.56
2023-03-10T06:14:32.743Z,86.92
2023-03-10T06:17:34.958Z,86.77
2023-03-10T06:20:39.415Z,85.19
2023-03-10T06:23:41.820Z,85.54
2023-03-10T06:27:23.769Z,85.64
2023-03-10T06:31:26.117Z,84.14
2023-03-10T06:35:27.952Z,84.25
2023-03-10T06:39:29.929Z,83.19
2023-03-10T06:42:51.953Z,82.54
2023-03-10T06:45:57.787Z,82.56
2023-03-10T06:49:00.781Z,82.24
2023-03-10T06:52:02.861Z,81.38
2023-03-10T06:55:05.458Z,80.67
2023-03-10T06:58:07.706Z,80.03
2023-03-10T07:01:24.230Z,79.48
2023-03-10T07:04:26.806Z,80.35
2023-03-10T07:07:28.941Z,80.05
2023-03-10T07:10:31.002Z,79.33
2023-03-10T07:13:33.456Z,80.53
2023-03-10T07:16:35.944Z,80.52
2023-03-10T07:19:38.230Z,81.13
2023-03-10T07:22:40.316Z,81.06
2023-03-10T07:25:42.583Z,80.21
2023-03-10T07:28:45.254Z,80.14
2023-03-10T07:31:47.611Z,79.49
2023-03-10T07:34:51.763Z,79.63
2023-03-10T07:37:53.918Z,78.78
2023-03-10T07:40:56.158Z,78.74
2023-03-10T07:43:58.697Z,78.82
2023-03-10T07:47:00.759Z,78.36
2023-03-10T07:50:02.916Z,78.78
2023-03-10T07:53:05.309Z,78.08
2023-03-10T07:56:09.930Z,78.99
2023-03-10T07:59:12.100Z,78.00
2023-03-10T08:02:54.694Z,78.20
2023-03-10T08:06:24.839Z,79.69
2023-03-10T08:09:27.203Z,79.75
2023-03-10T08:12:29.533Z,78.90
2023-03-10T08:15:31.648Z,78.37
2023-03-10T08:18:33.883Z,77.76
2023-03-10T08:21:36.454Z,77.84
2023-03-10T08:24:39.382Z,78.13
2023-03-10T08:27:41.694Z,78.80
2023-03-10T08:31:02.619Z,77.72
2023-03-10T08:34:05.908Z,76.92
2023-03-10T08:37:08.087Z,77.34
2023-03-10T08:40:13.625Z,77.47
2023-03-10T08:43:15.851Z,76.42
2023-03-10T08:46:22.859Z,75.33
2023-03-10T08:49:25.098Z,74.43
2023-03-10T08:52:27.277Z,74.56
2023-03-10T08:55:29.425Z,74.60
2023-03-10T08:58:32.169Z,74.96
2023-03-10T09:01:36.609Z,74.03
2023-03-10T09:04:38.821Z,73.66
2023-03-10T09:07:40.983Z,73.75
2023-03-10T09:10:44.584Z,73.68
2023-03-10T09:13:47.198Z,72.71
2023-03-10T09:16:49.481Z,72.95
2023-03-10T09:19:51.624Z,71.68
2023-03-10T09:22:55.537Z,72.18
2023-03-10T09:25:57.841Z,72.33
2023-03-10T09:29:00.135Z,72.48
2023-03-10T09:32:02.442Z,71.86
2023-03-10T09:35:05.976Z,71.02
2023-03-10T09:38:08.148Z,70.48
2023-03-10T09:41:19.044Z,69.56
2023-03-10T09:44:39.327Z,69.56
2023-03-10T09:48:16.753Z,67.59
2023-03-10T09:51:24.258Z,67.40
2023-03-10T09:55:01.436Z,67.22
2023-03-10T09:58:49.411Z,68.06
2023-03-10T10:02:26.008Z,67.29
2023-03-10T10:05:33.683Z,66.50
2023-03-10T10:08:41.439Z,65.68
2023-03-10T10:11:44.440Z,65.59
2023-03-10T10:14:56.761Z,65.82
2023-03-10T10:18:24.914Z,65.10
2023-03-10T10:21:59.990Z,64.10
2023-03-10T10:25:08.521Z,62.58
2023-03-10T10:28:20.262Z,62.60
2023-03-10T10:31:25.690Z,62.70
2023-03-10T10:34:27.814Z,62.36
2023-03-10T10:37:41.459Z,61.83
2023-03-10T10:41:07.367Z,61.50
2023-03-10T10:44:15.953Z,61.30
2023-03-10T10:47:29.367Z,60.82
2023-03-10T10:50:34.556Z,61.69
2023-03-10T10:53:40.196Z,61.56
2023-03-10T10:56:52.981Z,61.55
2023-03-10T10:59:55.073Z,61.08
2023-03-10T11:02:57.698Z,60.97
2023-03-10T11:06:01.045Z,59.88
2023-03-10T11:09:11.469Z,59.56
2023-03-10T11:12:31.486Z,59.47
2023-03-10T11:16:06.281Z,60.02
2023-03-10T11:19:29.600Z,59.86
2023-03-10T11:22:41.215Z,59.87
2023-03-10T11:25:58.916Z,60.38
2023-03-10T11:29:27.039Z,61.07
2023-03-10T11:32:43.983Z,60.04
2023-03-10T11:35:50.325Z,58.99
2023-03-10T11:39:06.011Z,58.52
2023-03-10T11:42:17.185Z,59.80
2023-03-10T11:45:48.544Z,59.54
2023-03-10T11:49:00.918Z,60.10
2023-03-10T11:52:12.139Z,60.73
2023-03-10T11:55:21.889Z,60.76
2023-03-10T11:58:41.430Z,60.69
2023-03-10T12:01:59.258Z,61.97
2023-03-10T12:05:08.001Z,60.93
2023-03-10T12:08:12.725Z,59.27
2023-03-10T12:11:21.537Z,57.78
2023-03-10T12:14:25.431Z,58.88
2023-03-10T12:17:28.567Z,59.47
2023-03-10T12:20:32.681Z,60.37
2023-03-10T12:23:45.979Z,60.42
2023-03-10T12:26:49.958Z,60.88
2023-03-10T12:29:52.047Z,60.26
2023-03-10T12:32:54.355Z,59.57
2023-03-10T12:36:02.773Z,59.58
2023-03-10T12:39:23.835Z,60.04
2023-03-10T12:42:35.597Z,60.10
2023-03-10T12:45:43.467Z,60.01
2023-03-10T12:48:53.848Z,61.42
2023-03-10T12:52:11.120Z,62.54
2023-03-10T12:55:28.324Z,63.47
2023-03-10T12:59:06.368Z,63.69
2023-03-10T13:02:57.027Z,63.26
2023-03-10T13:06:21.173Z,62.37
2023-03-10T13:09:47.397Z,59.27
2023-03-10T13:13:16.427Z,56.46
2023-03-10T13:16:20.906Z,56.46
2023-03-10T13:19:33.312Z,56.29
2023-03-10T13:22:36.916Z,54.16
2023-03-10T13:25:39.072Z,53.35
2023-03-10T13:28:54.614Z,56.25
2023-03-10T13:31:57.361Z,58.08
2023-03-10T13:35:14.941Z,58.38
2023-03-10T13:38:21.938Z,60.15
2023-03-10T13:41:24.894Z,60.16
2023-03-10T13:44:39.311Z,58.79
2023-03-10T13:47:42.758Z,56.89
2023-03-10T13:50:44.907Z,54.45
2023-03-10T13:53:52.697Z,54.47
2023-03-10T13:57:25.721Z,54.15
2023-03-10T14:00:28.819Z,52.81
2023-03-10T14:03:31.530Z,53.37
2023-03-10T14:06:34.081Z,54.46
2023-03-10T14:09:36.315Z,54.52
2023-03-10T14:12:42.705Z,55.17
2023-03-10T14:15:54.198Z,55.28
2023-03-10T14:18:56.520Z,55.27
2023-03-10T14:22:02.064Z,56.54
2023-03-10T14:25:09.268Z,56.62
2023-03-10T14:31:22.129Z,56.03
2023-03-10T14:34:24.375Z,55.28
2023-03-10T14:38:06.420Z,55.92
2023-03-10T14:41:30.389Z,56.85
2023-03-10T14:44:33.181Z,57.78
2023-03-10T14:47:35.587Z,58.31
2023-03-10T14:50:39.141Z,58.60
2023-03-10T14:53:42.710Z,57.12
2023-03-10T14:56:45.820Z,57.60
2023-03-10T14:59:48.977Z,57.97
2023-03-10T15:02:51.112Z,57.68
2023-03-10T15:05:53.444Z,58.44
2023-03-10T15:08:55.827Z,58.42
2023-03-10T15:11:59.745Z,58.89
2023-03-10T15:15:02.284Z,60.17
2023-03-10T15:18:06.137Z,60.88
2023-03-10T15:21:09.028Z,61.80
2023-03-10T15:24:11.144Z,62.37
2023-03-10T15:27:14.187Z,62.85
2023-03-10T15:30:20.939Z,63.45
2023-03-10T15:33:23.148Z,66.19
2023-03-10T15:36:25.188Z,68.73
2023-03-10T15:39:32.148Z,68.62
2023-03-10T15:42:35.145Z,68.60
2023-03-10T15:45:41.354Z,70.50
2023-03-10T15:48:43.595Z,73.16
2023-03-10T15:51:45.990Z,74.28
2023-03-10T15:54:48.096Z,74.02
2023-03-10T15:57:50.547Z,74.90
2023-03-10T16:00:52.556Z,74.77
2023-03-10T16:03:54.770Z,74.61
2023-03-10T16:06:56.947Z,74.98
2023-03-10T16:09:59.367Z,75.72
2023-03-10T16:13:02.027Z,75.64
2023-03-10T16:16:06.576Z,75.93
2023-03-10T16:19:08.848Z,75.17
2023-03-10T16:22:11.101Z,74.38
2023-03-10T16:25:18.902Z,74.23
2023-03-10T16:28:21.008Z,74.68
2023-03-10T16:31:26.449Z,73.96
2023-03-10T16:34:28.532Z,73.67
2023-03-10T16:37:30.725Z,74.08
2023-03-10T16:40:32.923Z,74.05
2023-03-10T16:43:35.392Z,74.37
2023-03-10T16:46:38.211Z,74.86
2023-03-10T16:49:40.356Z,75.12
2023-03-10T16:52:43.122Z,75.26
2023-03-10T16:55:45.241Z,75.52
2023-03-10T16:58:47.910Z,75.98
2023-03-10T17:01:50.769Z,76.14
2023-03-10T17:04:53.824Z,76.35
2023-03-10T17:08:02.371Z,76.29
2023-03-10T17:11:05.150Z,77.06
2023-03-10T17:14:10.492Z,77.10
2023-03-10T17:17:12.870Z,76.55
2023-03-10T17:20:18.504Z,77.19
2023-03-10T17:23:22.386Z,77.00
2023-03-10T17:26:25.130Z,76.89
2023-03-10T17:29:29.176Z,77.64
2023-03-10T17:32:31.603Z,77.42
2023-03-10T17:35:37.946Z,78.05
2023-03-10T17:38:41.094Z,78.67
2023-03-10T17:41:43.230Z,78.54
2023-03-10T17:44:45.359Z,78.38
2023-03-10T17:47:47.471Z,78.01
2023-03-10T17:50:49.743Z,78.32
2023-03-10T17:53:54.801Z,77.86
2023-03-10T17:56:57.076Z,78.54
2023-03-10T18:00:31.036Z,78.41
2023-03-10T18:03:35.350Z,78.33
2023-03-10T18:06:37.913Z,78.58
2023-03-10T18:09:40.283Z,78.34
2023-03-10T18:12:42.318Z,78.33
2023-03-10T18:15:50.026Z,78.29
2023-03-10T18:18:53.247Z,78.83
2023-03-10T18:21:55.820Z,78.78
2023-03-10T18:25:01.566Z,78.79
2023-03-10T18:28:03.815Z,79.14
2023-03-10T18:31:19.635Z,79.82
2023-03-10T18:34:21.845Z,79.63
2023-03-10T18:37:24.113Z,79.58
2023-03-10T18:40:26.471Z,80.25
2023-03-10T18:43:29.592Z,79.58
2023-03-10T18:46:31.938Z,79.78
2023-03-10T18:49:34.285Z,79.65
2023-03-10T18:52:36.849Z,79.61
2023-03-10T18:55:39.178Z,79.50
2023-03-10T18:58:41.875Z,78.99
2023-03-10T19:01:44.362Z,79.05
2023-03-10T19:04:47.957Z,79.15
2023-03-10T19:07:50.334Z,79.44
2023-03-10T19:10:57.500Z,79.18
2023-03-10T19:14:00.111Z,79.58
2023-03-10T19:17:02.500Z,80.47
2023-03-10T19:20:09.185Z,80.84
2023-03-10T19:23:12.337Z,81.67
2023-03-10T19:26:15.527Z,82.04
2023-03-10T19:29:17.915Z,81.26
2023-03-10T19:32:28.478Z,81.38
2023-03-10T19:35:31.061Z,81.46
2023-03-10T19:38:37.792Z,81.57
2023-03-10T19:41:39.978Z,81.68
2023-03-10T19:44:42.527Z,81.56
2023-03-10T19:47:45.989Z,81.09
2023-03-10T19:50:53.943Z,81.50
2023-03-10T19:53:57.787Z,82.41
2023-03-10T19:57:00.171Z,82.78
2023-03-10T20:00:05.938Z,83.13
2023-03-10T20:03:09.873Z,83.50
2023-03-10T20:06:12.212Z,83.84
2023-03-10T20:09:15.696Z,84.90
2023-03-10T20:12:19.779Z,85.93
2023-03-10T20:15:22.210Z,87.18
2023-03-10T20:18:26.158Z,87.78
2023-03-10T20:21:28.441Z,88.19
2023-03-10T20:24:30.753Z,88.79
2023-03-10T20:27:41.979Z,89.31
2023-03-10T20:30:46.938Z,89.33
2023-03-10T20:33:50.063Z,87.96
2023-03-10T20:36:52.558Z,87.74
2023-03-10T20:39:55.647Z,87.24
2023-03-10T20:42:59.823Z,86.96
2023-03-10T20:46:02.737Z,86.74
2023-03-10T20:49:05.960Z,87.71
2023-03-10T20:52:08.280Z,87.95
2023-03-10T20:55:31.367Z,89.39
2023-03-10T20:58:33.652Z,89.03
2023-03-10T21:01:39.812Z,88.85
2023-03-10T21:04:43.079Z,87.98
2023-03-10T21:07:45.721Z,89.25
2023-03-10T21:10:49.414Z,89.31
2023-03-10T21:13:52.037Z,89.34
2023-03-10T21:16:55.358Z,89.11
2023-03-10T21:19:57.867Z,89.03
2023-03-10T21:23:00.552Z,89.94
2023-03-10T21:26:08.619Z,89.95
2023-03-10T21:29:10.951Z,90.55
2023-03-10T21:32:13.362Z,90.88
2023-03-10T21:35:15.811Z,90.39
2023-03-10T21:38:19.880Z,90.70
2023-03-10T21:41:26.479Z,91.02
2023-03-10T21:44:28.824Z,90.38
2023-03-10T21:47:31.245Z,89.96
2023-03-10T21:50:33.329Z,89.45
2023-03-10T21:53:35.980Z,88.87
2023-03-10T21:56:38.173Z,88.56
2023-03-10T21:59:40.698Z,89.05
2023-03-10T22:02:43.371Z,88.80
2023-03-10T22:05:45.411Z,89.80
2023-03-10T22:08:47.503Z,89.78
2023-03-10T22:11:49.677Z,89.92
2023-03-10T22:14:56.230Z,90.03
2023-03-10T22:17:58.393Z,90.90
2023-03-10T22:21:00.571Z,91.24
2023-03-10T22:24:03.310Z,91.61
2023-03-10T22:27:06.221Z,90.60
2023-03-10T22:30:10.165Z,90.61
2023-03-10T22:33:12.343Z,90.31
2023-03-10T22:36:14.497Z,90.47
2023-03-10T22:39:16.643Z,91.02
2023-03-10T22:42:18.757Z,91.29
2023-03-10T22:45:23.784Z,91.06
2023-03-10T22:48:25.942Z,91.96
2023-03-10T22:51:28.068Z,91.59
2023-03-10T22:54:30.245Z,92.27
2023-03-10T22:57:32.253Z,91.97
2023-03-10T23:00:35.816Z,91.31
2023-03-10T23:03:38.000Z,91.08
2023-03-10T23:06:40.155Z,90.48
2023-03-10T23:09:42.423Z,91.37
2023-03-10T23:12:45.899Z,91.17
2023-03-10T23:15:48.002Z,92.60
2023-03-10T23:18:50.216Z,92.08
2023-03-10T23:21:52.539Z,91.01
2023-03-10T23:24:54.623Z,90.47
2023-03-10T23:27:56.788Z,90.98
2023-03-10T23:31:00.570Z,91.58
2023-03-10T23:34:02.712Z,91.69
2023-03-10T23:37:04.915Z,91.98
2023-03-10T23:40:11.745Z,91.31
2023-03-10T23:43:14.295Z,91.79
2023-03-10T23:46:17.257Z,91.02
2023-03-10T23:49:22.211Z,90.28
2023-03-10T23:52:24.564Z,89.93
2023-03-10T23:55:33.296Z,89.86
2023-03-10T23:58:35.726Z,89.76
